Terminal Aerodrome Forecast
Issued by NWS Mt. Holly, NJ

Home | Current Version | Previous Version | Text Only | Print | Product List | Glossary On
Versions: 1 2 3 4 5 6 7 8 9 10 11 12 13 14 15 16 17 18 19 20 21 22 23 24 25
000
FTUS41 KPHI 310537
TAFPHL
TAF
KPHL 310537Z 3106/0112 11005KT P6SM SCT250
      TEMPO 3108/3111 5SM BR
     FM311200 24005KT P6SM SCT250
     FM312000 21009KT P6SM SCT060 BKN200
     FM010500 21005KT P6SM -SHRA OVC060
     FM011000 36003KT 5SM -SHRA BR SCT010 OVC040=

USA.gov is the U.S. government's official web portal to all federal, state and local government web resources and services.